createdAt,value
2019-04-14T00:00:29.479Z,19.75
2019-04-14T00:03:04.445Z,20.25
2019-04-14T00:05:32.749Z,18.80
2019-04-14T00:08:00.237Z,19.25
2019-04-14T00:10:26.808Z,21.55
2019-04-14T00:12:53.534Z,38.63
2019-04-14T00:15:29.225Z,20.70
2019-04-14T00:17:47.999Z,19.20
2019-04-14T00:20:16.347Z,18.60
2019-04-14T00:22:42.766Z,24.72
2019-04-14T00:25:09.166Z,23.20
2019-04-14T00:27:36.653Z,21.77
2019-04-14T00:30:07.640Z,32.65
2019-04-14T00:35:08.229Z,22.15
2019-04-14T00:37:53.362Z,19.80
2019-04-14T00:40:21.660Z,19.73
2019-04-14T00:43:00.577Z,20.50
2019-04-14T00:45:40.492Z,19.65
2019-04-14T00:48:09.038Z,19.40
2019-04-14T00:50:29.845Z,20.37
2019-04-14T00:52:56.654Z,19.17
2019-04-14T00:55:23.084Z,19.25
2019-04-14T00:57:49.207Z,19.52
2019-04-14T01:00:17.607Z,21.12
2019-04-14T01:02:44.973Z,19.65
2019-04-14T01:05:13.747Z,20.25
2019-04-14T01:07:39.936Z,20.23
2019-04-14T01:10:08.179Z,20.43
2019-04-14T01:12:34.362Z,19.65
2019-04-14T01:15:00.830Z,20.92
2019-04-14T01:17:26.921Z,19.48
2019-04-14T01:19:53.082Z,19.37
2019-04-14T01:22:20.540Z,20.55
2019-04-14T01:24:46.905Z,19.62
2019-04-14T01:27:13.013Z,18.55
2019-04-14T01:29:40.471Z,19.42
2019-04-14T01:32:06.666Z,19.27
2019-04-14T01:34:32.964Z,19.23
2019-04-14T01:36:59.115Z,19.40
2019-04-14T01:39:26.420Z,19.10
2019-04-14T01:41:52.793Z,18.85
2019-04-14T01:44:19.917Z,17.52
2019-04-14T01:46:46.074Z,18.65
2019-04-14T01:49:13.592Z,17.85
2019-04-14T01:51:48.417Z,18.00
2019-04-14T01:54:17.127Z,18.90
2019-04-14T01:56:49.218Z,18.52
2019-04-14T01:59:17.303Z,19.52
2019-04-14T02:01:48.153Z,19.17
2019-04-14T02:04:14.363Z,19.45
2019-04-14T02:06:40.461Z,19.07
2019-04-14T02:09:09.698Z,19.30
2019-04-14T02:11:36.015Z,19.37
2019-04-14T02:14:03.603Z,20.20
2019-04-14T02:16:37.851Z,20.12
2019-04-14T02:18:58.650Z,19.52
2019-04-14T02:21:25.969Z,19.65
2019-04-14T02:23:52.192Z,20.60
2019-04-14T02:26:19.671Z,20.88
2019-04-14T02:28:46.205Z,22.62
2019-04-14T02:31:31.777Z,23.27
2019-04-14T02:34:07.485Z,22.80
2019-04-14T02:36:39.785Z,24.52
2019-04-14T02:39:22.319Z,22.77
2019-04-14T02:44:04.172Z,23.40
2019-04-14T02:46:31.422Z,22.82
2019-04-14T02:56:22.284Z,22.60
2019-04-14T02:58:52.025Z,24.35
2019-04-14T03:01:35.374Z,23.60
2019-04-14T03:03:43.864Z,26.10
2019-04-14T03:06:12.493Z,23.07
2019-04-14T03:08:45.636Z,23.92
2019-04-14T03:11:09.554Z,24.00
2019-04-14T03:13:35.966Z,25.35
2019-04-14T03:16:02.298Z,24.95
2019-04-14T03:18:39.629Z,24.60
2019-04-14T03:21:21.367Z,26.07
2019-04-14T03:26:47.427Z,24.15
2019-04-14T03:29:21.601Z,27.65
2019-04-14T03:39:36.981Z,25.10
2019-04-14T03:41:36.819Z,24.07
2019-04-14T03:44:10.486Z,23.07
2019-04-14T03:49:06.272Z,23.50
2019-04-14T03:51:40.458Z,22.80
2019-04-14T03:53:59.102Z,21.95
2019-04-14T03:56:11.378Z,22.17
2019-04-14T03:58:35.926Z,21.25
2019-04-14T04:01:02.143Z,22.95
2019-04-14T04:03:28.279Z,21.45
2019-04-14T04:05:54.574Z,22.32
2019-04-14T04:08:22.348Z,22.37
2019-04-14T04:10:51.101Z,23.22
2019-04-14T04:13:17.423Z,21.85
2019-04-14T04:15:43.754Z,21.93
2019-04-14T04:18:29.222Z,23.42
2019-04-14T04:20:58.833Z,22.60
2019-04-14T04:23:42.505Z,22.22
2019-04-14T04:26:14.657Z,23.07
2019-04-14T04:28:58.370Z,23.77
2019-04-14T04:31:29.241Z,24.40
2019-04-14T04:34:01.057Z,23.47
2019-04-14T04:36:46.387Z,22.95
2019-04-14T04:39:21.426Z,23.25
2019-04-14T04:41:47.633Z,23.47
2019-04-14T04:44:13.858Z,21.48
2019-04-14T04:46:39.946Z,23.38
2019-04-14T04:49:11.730Z,23.22
2019-04-14T04:51:34.321Z,25.43
2019-04-14T04:54:01.703Z,23.52
2019-04-14T04:56:28.122Z,24.07
2019-04-14T04:58:54.536Z,24.27
2019-04-14T05:01:20.997Z,25.48
2019-04-14T05:03:47.161Z,25.37
2019-04-14T05:06:40.058Z,22.85
2019-04-14T05:09:14.462Z,24.07
2019-04-14T05:11:42.690Z,23.38
2019-04-14T05:14:13.610Z,24.55
2019-04-14T05:16:39.842Z,22.10
2019-04-14T05:19:17.796Z,22.98
2019-04-14T05:21:34.335Z,23.05
2019-04-14T05:24:00.717Z,21.85
2019-04-14T05:26:27.024Z,22.67
2019-04-14T05:28:53.200Z,23.18
2019-04-14T05:31:20.679Z,22.07
2019-04-14T05:33:47.131Z,21.52
2019-04-14T05:36:13.336Z,23.32
2019-04-14T05:38:40.655Z,22.30
2019-04-14T05:41:07.091Z,22.00
2019-04-14T05:43:41.514Z,22.62
2019-04-14T05:46:01.391Z,22.42
2019-04-14T05:48:29.411Z,22.80
2019-04-14T05:50:55.834Z,24.47
2019-04-14T05:53:21.943Z,23.10
2019-04-14T05:55:48.264Z,26.02
2019-04-14T05:58:14.434Z,25.00
2019-04-14T06:00:43.742Z,23.83
2019-04-14T06:03:10.356Z,23.42
2019-04-14T06:05:36.694Z,22.20
2019-04-14T06:08:03.023Z,23.47
2019-04-14T06:10:29.326Z,23.07
2019-04-14T06:12:55.567Z,23.00
2019-04-14T06:15:21.773Z,21.90
2019-04-14T06:17:47.947Z,22.20
2019-04-14T06:20:14.308Z,24.35
2019-04-14T06:22:40.707Z,23.98
2019-04-14T06:25:07.316Z,23.25
2019-04-14T06:27:34.511Z,22.85
2019-04-14T06:30:02.636Z,24.00
2019-04-14T06:32:37.669Z,25.00
2019-04-14T06:35:18.200Z,25.60
2019-04-14T06:37:52.302Z,19.00
2019-04-14T06:40:19.463Z,26.02
2019-04-14T06:42:45.614Z,26.75
2019-04-14T06:45:12.070Z,29.52
2019-04-14T06:47:38.283Z,29.15
2019-04-14T06:50:05.641Z,31.02
2019-04-14T06:52:31.880Z,28.52
2019-04-14T06:54:57.990Z,29.98
2019-04-14T06:57:25.303Z,29.80
2019-04-14T06:59:51.383Z,27.42
2019-04-14T07:02:17.594Z,29.27
2019-04-14T07:04:43.740Z,28.40
2019-04-14T07:07:09.984Z,28.95
2019-04-14T07:09:36.178Z,27.55
2019-04-14T07:12:02.394Z,27.02
2019-04-14T07:14:32.044Z,27.87
2019-04-14T07:16:57.791Z,29.20
2019-04-14T07:19:23.977Z,29.42
2019-04-14T07:21:50.138Z,28.27
2019-04-14T07:24:16.299Z,29.40
2019-04-14T07:26:42.462Z,30.45
2019-04-14T07:29:08.622Z,28.35
2019-04-14T07:31:43.076Z,28.02
2019-04-14T07:34:11.142Z,29.30
2019-04-14T07:36:56.087Z,29.55
2019-04-14T07:39:40.553Z,28.98
2019-04-14T07:42:10.951Z,29.05
2019-04-14T07:44:55.459Z,30.37
2019-04-14T07:47:40.469Z,26.68
2019-04-14T07:50:25.628Z,29.15
2019-04-14T07:52:53.668Z,30.37
2019-04-14T07:55:40.234Z,28.80
2019-04-14T07:58:11.219Z,28.50
2019-04-14T08:00:48.675Z,28.85
2019-04-14T08:03:19.728Z,27.73
2019-04-14T08:08:12.362Z,27.45
2019-04-14T08:10:38.971Z,27.15
2019-04-14T08:13:05.195Z,28.45
2019-04-14T08:15:31.443Z,28.35
2019-04-14T08:17:57.652Z,30.02
2019-04-14T08:20:27.725Z,30.35
2019-04-14T08:22:52.368Z,29.70
2019-04-14T08:25:18.619Z,28.98
2019-04-14T08:27:44.846Z,27.07
2019-04-14T08:30:11.679Z,28.92
2019-04-14T08:32:37.852Z,27.22
2019-04-14T08:35:06.108Z,28.30
2019-04-14T08:37:32.732Z,54.58
2019-04-14T08:39:58.895Z,88.52
2019-04-14T08:42:27.035Z,43.28
2019-04-14T08:44:55.260Z,46.55
2019-04-14T08:47:38.676Z,111.10
2019-04-14T08:50:23.973Z,59.13
2019-04-14T08:53:01.265Z,28.85
2019-04-14T08:55:35.625Z,30.08
2019-04-14T08:58:04.255Z,27.85
2019-04-14T09:00:49.204Z,28.23
2019-04-14T09:03:24.503Z,30.12
2019-04-14T09:06:04.946Z,30.45
2019-04-14T09:08:36.061Z,22.82
2019-04-14T09:13:33.004Z,21.15
2019-04-14T09:15:59.380Z,28.47
2019-04-14T09:18:25.561Z,24.85
2019-04-14T09:20:52.823Z,27.62
2019-04-14T09:23:19.077Z,29.30
2019-04-14T09:25:45.777Z,27.67
2019-04-14T09:28:12.058Z,27.45
2019-04-14T09:30:38.235Z,29.48
2019-04-14T09:33:04.905Z,27.70
2019-04-14T09:35:32.257Z,28.57
2019-04-14T09:37:59.165Z,58.02
2019-04-14T09:40:25.640Z,47.20
2019-04-14T09:42:53.835Z,38.85
2019-04-14T09:45:20.095Z,28.20
2019-04-14T09:47:46.495Z,29.12
2019-04-14T09:50:12.980Z,26.20
2019-04-14T09:52:39.231Z,29.45
2019-04-14T09:55:05.572Z,27.73
2019-04-14T09:57:31.888Z,23.57
2019-04-14T09:59:58.003Z,19.87
2019-04-14T10:02:24.229Z,19.92
2019-04-14T10:04:50.392Z,21.65
2019-04-14T10:07:16.673Z,19.67
2019-04-14T10:09:42.903Z,21.90
2019-04-14T10:12:09.010Z,19.35
2019-04-14T10:14:35.222Z,14.35
2019-04-14T10:17:01.732Z,15.25
2019-04-14T10:19:28.174Z,16.62
2019-04-14T10:21:55.071Z,14.70
2019-04-14T10:24:21.559Z,16.07
2019-04-14T10:26:48.010Z,12.23
2019-04-14T10:29:14.179Z,9.10
2019-04-14T10:31:40.406Z,9.00
2019-04-14T10:34:06.541Z,7.10
2019-04-14T10:36:33.780Z,6.03
2019-04-14T10:39:00.017Z,6.10
2019-04-14T10:41:26.124Z,6.90
2019-04-14T10:43:52.354Z,6.05
2019-04-14T10:46:18.481Z,6.60
2019-04-14T10:48:44.685Z,5.42
2019-04-14T10:51:10.884Z,6.08
2019-04-14T10:53:37.165Z,5.10
2019-04-14T10:56:03.438Z,5.92
2019-04-14T10:58:29.675Z,4.72
2019-04-14T11:00:56.006Z,4.70
2019-04-14T11:03:22.933Z,4.67
2019-04-14T11:05:57.974Z,4.83
2019-04-14T11:08:24.132Z,3.05
2019-04-14T11:10:50.374Z,3.80
2019-04-14T11:13:16.500Z,4.15
2019-04-14T11:15:42.766Z,4.35
2019-04-14T11:18:08.944Z,4.15
2019-04-14T11:20:35.822Z,4.03
2019-04-14T11:23:03.506Z,3.40
2019-04-14T11:25:29.965Z,3.65
2019-04-14T11:27:56.211Z,3.35
2019-04-14T11:30:23.462Z,3.80
2019-04-14T11:33:01.205Z,3.05
2019-04-14T11:35:29.362Z,3.40
2019-04-14T11:38:09.806Z,2.95
2019-04-14T11:40:53.193Z,3.10
2019-04-14T11:43:19.402Z,3.15
2019-04-14T11:45:45.889Z,2.77
2019-04-14T11:48:12.463Z,3.20
2019-04-14T11:50:38.731Z,3.37
2019-04-14T11:53:05.009Z,3.70
2019-04-14T11:55:32.155Z,3.20
2019-04-14T11:57:58.489Z,3.20
2019-04-14T12:00:32.333Z,3.02
2019-04-14T12:03:16.135Z,3.27
2019-04-14T12:05:50.311Z,2.70
2019-04-14T12:08:21.082Z,2.98
2019-04-14T12:10:47.410Z,3.08
2019-04-14T12:13:13.517Z,3.40
2019-04-14T12:15:39.743Z,3.60
2019-04-14T12:18:05.914Z,3.20
2019-04-14T12:20:33.247Z,4.08
2019-04-14T12:22:59.668Z,4.17
2019-04-14T12:25:25.943Z,3.70
2019-04-14T12:27:53.456Z,3.55
2019-04-14T12:30:20.226Z,3.40
2019-04-14T12:32:46.509Z,3.45
2019-04-14T12:35:12.911Z,4.35
2019-04-14T12:37:39.314Z,3.90
2019-04-14T12:40:05.522Z,4.17
2019-04-14T12:42:48.521Z,3.83
2019-04-14T12:45:26.144Z,4.10
2019-04-14T12:47:54.387Z,4.10
2019-04-14T12:50:39.349Z,4.15
2019-04-14T12:53:06.424Z,4.42
2019-04-14T12:55:33.271Z,4.67
2019-04-14T12:58:01.543Z,4.42
2019-04-14T13:00:44.602Z,4.17
2019-04-14T13:03:10.806Z,4.20
2019-04-14T13:05:37.027Z,4.60
2019-04-14T13:08:03.642Z,4.17
2019-04-14T13:10:29.800Z,4.60
2019-04-14T13:12:56.004Z,4.40
2019-04-14T13:15:22.175Z,4.80
2019-04-14T13:17:49.661Z,4.75
2019-04-14T13:20:16.030Z,4.62
2019-04-14T13:22:42.294Z,4.80
2019-04-14T13:25:08.827Z,4.50
2019-04-14T13:27:34.940Z,5.00
2019-04-14T13:30:01.164Z,4.45
2019-04-14T13:32:35.823Z,4.87
2019-04-14T13:34:56.489Z,4.67
2019-04-14T13:37:22.643Z,5.28
2019-04-14T13:39:48.918Z,4.10
2019-04-14T13:42:16.105Z,4.58
2019-04-14T13:44:42.399Z,4.08
2019-04-14T13:47:09.791Z,4.17
2019-04-14T13:49:36.126Z,4.95
2019-04-14T13:52:02.366Z,4.05
2019-04-14T13:54:28.574Z,4.08
2019-04-14T13:56:54.921Z,4.30
2019-04-14T13:59:21.042Z,3.85
2019-04-14T14:01:47.269Z,4.08
2019-04-14T14:04:13.448Z,4.05
2019-04-14T14:06:39.683Z,3.98
2019-04-14T14:09:09.252Z,4.58
2019-04-14T14:11:40.342Z,5.87
2019-04-14T14:14:11.191Z,6.25
2019-04-14T14:16:57.547Z,5.75
2019-04-14T14:19:25.762Z,6.67
2019-04-14T14:21:56.793Z,6.92
2019-04-14T14:26:58.583Z,5.28
2019-04-14T14:31:51.678Z,8.38
2019-04-14T14:34:18.097Z,9.03
2019-04-14T14:36:44.254Z,9.73
2019-04-14T14:39:10.739Z,10.35
2019-04-14T14:41:37.338Z,10.75
2019-04-14T14:44:03.835Z,10.72
2019-04-14T14:46:31.962Z,11.65
2019-04-14T14:49:00.089Z,11.80
2019-04-14T14:51:39.985Z,11.43
2019-04-14T14:54:06.333Z,11.57
2019-04-14T14:56:32.482Z,11.70
2019-04-14T14:58:58.684Z,11.68
2019-04-14T15:01:24.821Z,11.43
2019-04-14T15:03:51.069Z,11.90
2019-04-14T15:06:17.237Z,11.75
2019-04-14T15:08:43.448Z,12.43
2019-04-14T15:11:09.631Z,11.88
2019-04-14T15:13:35.998Z,12.35
2019-04-14T15:16:02.372Z,12.90
2019-04-14T15:18:28.617Z,13.43
2019-04-14T15:20:54.833Z,14.00
2019-04-14T15:23:25.085Z,15.18
2019-04-14T15:25:49.108Z,15.05
2019-04-14T15:28:15.786Z,14.28
2019-04-14T15:30:42.246Z,15.35
2019-04-14T15:33:08.507Z,15.50
2019-04-14T15:35:34.776Z,16.30
2019-04-14T15:38:01.061Z,16.52
2019-04-14T15:40:27.360Z,15.30
2019-04-14T15:42:53.642Z,16.82
2019-04-14T15:45:19.887Z,17.05
2019-04-14T15:47:46.251Z,16.57
2019-04-14T15:50:12.720Z,16.82
2019-04-14T15:52:38.965Z,17.80
2019-04-14T15:55:06.657Z,18.12
2019-04-14T15:57:46.814Z,18.35
2019-04-14T16:00:21.448Z,18.52
2019-04-14T16:02:52.633Z,21.85
2019-04-14T16:05:30.092Z,19.30
2019-04-14T16:08:07.499Z,20.70
2019-04-14T16:10:52.579Z,20.95
2019-04-14T16:13:23.936Z,22.30
2019-04-14T16:15:57.873Z,23.25
2019-04-14T16:18:26.276Z,21.75
2019-04-14T16:20:52.619Z,20.45
2019-04-14T16:23:18.863Z,22.42
2019-04-14T16:25:46.967Z,20.77
2019-04-14T16:28:17.753Z,21.77
2019-04-14T16:30:51.420Z,21.17
2019-04-14T16:33:19.566Z,23.02
2019-04-14T16:35:47.264Z,21.95
2019-04-14T16:38:13.548Z,22.70
2019-04-14T16:40:39.778Z,21.73
2019-04-14T16:43:06.011Z,21.15
2019-04-14T16:45:32.223Z,20.30
2019-04-14T16:47:58.640Z,21.65
2019-04-14T16:50:24.738Z,21.05
2019-04-14T16:53:01.704Z,23.50
2019-04-14T16:55:46.245Z,24.00
2019-04-14T16:58:14.438Z,25.20
2019-04-14T17:00:42.598Z,23.60
2019-04-14T17:03:08.923Z,22.22
2019-04-14T17:05:35.135Z,23.85
2019-04-14T17:08:01.508Z,23.90
2019-04-14T17:10:27.829Z,22.85
2019-04-14T17:12:54.053Z,22.10
2019-04-14T17:15:37.340Z,25.00
2019-04-14T17:18:17.264Z,25.52
2019-04-14T17:21:00.766Z,25.40
2019-04-14T17:23:41.043Z,20.02
2019-04-14T17:26:24.021Z,33.60
2019-04-14T17:28:52.263Z,24.32
2019-04-14T17:31:20.359Z,20.68
2019-04-14T17:33:58.141Z,21.55
2019-04-14T17:36:35.276Z,21.20
2019-04-14T17:39:15.529Z,21.15
2019-04-14T17:41:46.673Z,16.95
2019-04-14T17:46:57.714Z,21.57
2019-04-14T17:49:34.851Z,22.15
2019-04-14T17:52:19.336Z,24.45
2019-04-14T17:54:47.669Z,22.00
2019-04-14T17:57:32.548Z,20.97
2019-04-14T18:00:03.765Z,20.52
2019-04-14T18:02:32.136Z,23.42
2019-04-14T18:05:06.401Z,25.80
2019-04-14T18:07:34.966Z,23.98
2019-04-14T18:10:19.503Z,21.75
2019-04-14T18:12:56.601Z,25.20
2019-04-14T18:15:25.292Z,24.02
2019-04-14T18:18:08.681Z,22.10
2019-04-14T18:20:36.813Z,21.65
2019-04-14T18:23:03.052Z,22.80
2019-04-14T18:25:29.181Z,21.35
2019-04-14T18:27:57.290Z,20.12
2019-04-14T18:30:28.318Z,23.22
2019-04-14T18:35:24.640Z,21.77
2019-04-14T18:37:55.583Z,20.15
2019-04-14T18:40:35.935Z,24.60
2019-04-14T18:43:09.815Z,17.80
2019-04-14T18:45:38.015Z,21.17
2019-04-14T18:48:12.054Z,22.65
2019-04-14T18:50:59.034Z,19.73
2019-04-14T18:53:27.060Z,20.15
2019-04-14T18:56:13.514Z,21.40
2019-04-14T18:58:44.223Z,20.77
2019-04-14T19:01:19.397Z,23.07
2019-04-14T19:03:45.501Z,23.35
2019-04-14T19:06:11.708Z,22.10
2019-04-14T19:08:37.820Z,21.70
2019-04-14T19:11:14.854Z,23.35
2019-04-14T19:13:42.994Z,22.17
2019-04-14T19:16:20.189Z,21.95
2019-04-14T19:18:48.382Z,21.73
2019-04-14T19:21:16.523Z,29.12
2019-04-14T19:23:42.658Z,22.55
2019-04-14T19:26:08.856Z,25.97
2019-04-14T19:28:35.040Z,26.23
2019-04-14T19:31:01.320Z,20.55
2019-04-14T19:33:27.528Z,21.40
2019-04-14T19:35:53.647Z,21.60
2019-04-14T19:38:19.867Z,19.42
2019-04-14T19:40:46.082Z,22.15
2019-04-14T19:43:23.164Z,21.77
2019-04-14T19:45:40.714Z,26.07
2019-04-14T19:48:06.889Z,22.02
2019-04-14T19:50:33.112Z,20.50
2019-04-14T19:52:59.377Z,22.20
2019-04-14T19:55:25.530Z,22.87
2019-04-14T19:57:51.919Z,23.47
2019-04-14T20:00:18.420Z,31.85
2019-04-14T20:02:44.611Z,32.78
2019-04-14T20:05:11.031Z,21.80
2019-04-14T20:07:37.344Z,21.27
2019-04-14T20:10:05.450Z,22.17
2019-04-14T20:12:31.745Z,21.37
2019-04-14T20:14:59.023Z,22.58
2019-04-14T20:17:27.410Z,21.42
2019-04-14T20:20:08.040Z,22.25
2019-04-14T20:22:51.443Z,21.12
2019-04-14T20:25:32.853Z,23.32
2019-04-14T20:27:56.304Z,23.02
2019-04-14T20:30:39.803Z,24.50
2019-04-14T20:33:06.001Z,22.45
2019-04-14T20:35:33.210Z,23.32
2019-04-14T20:37:59.438Z,22.82
2019-04-14T20:40:25.764Z,23.67
2019-04-14T20:42:51.912Z,23.92
2019-04-14T20:45:18.378Z,24.25
2019-04-14T20:47:44.572Z,21.85
2019-04-14T20:50:11.127Z,21.55
2019-04-14T20:52:37.388Z,21.02
2019-04-14T20:55:05.615Z,22.42
2019-04-14T20:57:31.749Z,24.98
2019-04-14T20:59:58.015Z,21.33
2019-04-14T21:02:28.811Z,21.65
2019-04-14T21:04:56.991Z,20.88
2019-04-14T21:07:27.897Z,21.05
2019-04-14T21:09:55.929Z,24.50
2019-04-14T21:12:24.052Z,19.62
2019-04-14T21:15:04.194Z,21.45
2019-04-14T21:17:35.303Z,17.17
2019-04-14T21:22:44.735Z,22.32
2019-04-14T21:25:18.692Z,20.72
2019-04-14T21:28:03.729Z,25.27
2019-04-14T21:30:41.168Z,22.52
2019-04-14T21:33:18.826Z,19.82
2019-04-14T21:35:50.017Z,24.72
2019-04-14T21:40:46.222Z,19.67
2019-04-14T21:43:12.316Z,24.77
2019-04-14T21:45:38.527Z,20.23
2019-04-14T21:48:04.638Z,27.62
2019-04-14T21:50:30.874Z,27.32
2019-04-14T21:52:58.160Z,30.68
2019-04-14T21:55:24.487Z,26.73
2019-04-14T21:57:55.198Z,30.25
2019-04-14T22:00:45.449Z,21.15
2019-04-14T22:03:15.577Z,19.70
2019-04-14T22:05:49.730Z,20.90
2019-04-14T22:08:17.852Z,24.23
2019-04-14T22:10:52.072Z,21.62
2019-04-14T22:13:18.300Z,30.20
2019-04-14T22:15:45.520Z,25.43
2019-04-14T22:18:11.738Z,23.32
2019-04-14T22:20:37.918Z,22.20
2019-04-14T22:23:06.198Z,26.05
2019-04-14T22:25:32.369Z,25.35
2019-04-14T22:27:58.595Z,24.50
2019-04-14T22:30:24.752Z,24.05
2019-04-14T22:32:51.037Z,23.60
2019-04-14T22:35:17.392Z,19.98
2019-04-14T22:37:43.659Z,19.67
2019-04-14T22:40:10.208Z,23.30
2019-04-14T22:42:36.574Z,20.52
2019-04-14T22:45:04.768Z,21.77
2019-04-14T22:47:30.876Z,23.60
2019-04-14T22:49:57.111Z,24.40
2019-04-14T22:52:23.220Z,24.80
2019-04-14T22:54:49.446Z,24.95
2019-04-14T22:57:15.582Z,24.37
2019-04-14T22:59:41.860Z,23.22
2019-04-14T23:02:09.998Z,23.92
2019-04-14T23:04:38.008Z,24.32
2019-04-14T23:07:06.220Z,25.12
2019-04-14T23:09:34.236Z,24.57
2019-04-14T23:12:08.419Z,22.77
2019-04-14T23:14:49.622Z,23.65
2019-04-14T23:17:20.845Z,24.25
2019-04-14T23:19:51.826Z,24.65
2019-04-14T23:22:31.929Z,24.23
2019-04-14T23:24:58.197Z,19.30
2019-04-14T23:27:25.606Z,26.40
2019-04-14T23:29:51.902Z,27.07
2019-04-14T23:32:18.328Z,26.52
2019-04-14T23:34:44.546Z,27.45
2019-04-14T23:37:10.653Z,29.23
2019-04-14T23:39:37.875Z,28.00
2019-04-14T23:42:04.300Z,29.67
2019-04-14T23:44:31.631Z,31.45
2019-04-14T23:46:57.910Z,27.80
2019-04-14T23:49:24.192Z,28.62
2019-04-14T23:51:50.368Z,28.02
2019-04-14T23:54:16.850Z,29.98
2019-04-14T23:56:43.157Z,28.52
2019-04-14T23:59:09.268Z,31.20
